sensor_id;sensor_type;location;lat;lon;timestamp;P1;durP1;ratioP1;P2;durP2;ratioP2
4420;SDS011;11824;51.178;13.546;2023-09-30T00:01:05;15.57;;;4.00;;
4420;SDS011;11824;51.178;13.546;2023-09-30T00:03:37;8.90;;;3.77;;
4420;SDS011;11824;51.178;13.546;2023-09-30T00:06:06;5.53;;;2.97;;
4420;SDS011;11824;51.178;13.546;2023-09-30T00:08:36;7.10;;;3.33;;
4420;SDS011;11824;51.178;13.546;2023-09-30T00:11:05;6.33;;;2.43;;
4420;SDS011;11824;51.178;13.546;2023-09-30T00:13:36;7.00;;;2.40;;
4420;SDS011;11824;51.178;13.546;2023-09-30T00:16:04;7.47;;;2.87;;
4420;SDS011;11824;51.178;13.546;2023-09-30T00:18:35;9.83;;;3.40;;
4420;SDS011;11824;51.178;13.546;2023-09-30T00:21:04;2.27;;;2.10;;
4420;SDS011;11824;51.178;13.546;2023-09-30T00:23:34;5.83;;;3.07;;
4420;SDS011;11824;51.178;13.546;2023-09-30T00:26:02;4.80;;;2.30;;
4420;SDS011;11824;51.178;13.546;2023-09-30T00:28:31;5.30;;;3.10;;
4420;SDS011;11824;51.178;13.546;2023-09-30T00:31:05;5.63;;;2.10;;
4420;SDS011;11824;51.178;13.546;2023-09-30T00:33:37;2.07;;;1.73;;
4420;SDS011;11824;51.178;13.546;2023-09-30T00:36:07;2.00;;;1.60;;
4420;SDS011;11824;51.178;13.546;2023-09-30T00:38:37;7.93;;;1.17;;
4420;SDS011;11824;51.178;13.546;2023-09-30T00:41:06;1.40;;;0.87;;
4420;SDS011;11824;51.178;13.546;2023-09-30T00:43:35;1.10;;;0.80;;
4420;SDS011;11824;51.178;13.546;2023-09-30T00:46:06;1.40;;;0.90;;
4420;SDS011;11824;51.178;13.546;2023-09-30T00:48:42;3.00;;;1.50;;
4420;SDS011;11824;51.178;13.546;2023-09-30T00:51:11;1.17;;;0.73;;
4420;SDS011;11824;51.178;13.546;2023-09-30T00:53:40;2.60;;;1.20;;
4420;SDS011;11824;51.178;13.546;2023-09-30T00:56:09;1.77;;;1.30;;
4420;SDS011;11824;51.178;13.546;2023-09-30T00:58:39;2.80;;;1.10;;
4420;SDS011;11824;51.178;13.546;2023-09-30T01:01:10;1.93;;;1.20;;
4420;SDS011;11824;51.178;13.546;2023-09-30T01:03:39;6.30;;;2.10;;
4420;SDS011;11824;51.178;13.546;2023-09-30T01:06:08;4.00;;;1.60;;
4420;SDS011;11824;51.178;13.546;2023-09-30T01:08:38;6.90;;;2.23;;
4420;SDS011;11824;51.178;13.546;2023-09-30T01:11:08;2.90;;;1.57;;
4420;SDS011;11824;51.178;13.546;2023-09-30T01:13:37;5.20;;;1.50;;
4420;SDS011;11824;51.178;13.546;2023-09-30T01:16:07;2.60;;;1.20;;
4420;SDS011;11824;51.178;13.546;2023-09-30T01:18:38;6.73;;;2.27;;
4420;SDS011;11824;51.178;13.546;2023-09-30T01:21:10;1.50;;;1.40;;
4420;SDS011;11824;51.178;13.546;2023-09-30T01:23:40;3.90;;;1.80;;
4420;SDS011;11824;51.178;13.546;2023-09-30T01:26:13;4.50;;;1.50;;
4420;SDS011;11824;51.178;13.546;2023-09-30T01:28:42;2.60;;;1.50;;
4420;SDS011;11824;51.178;13.546;2023-09-30T01:31:12;9.13;;;2.00;;
4420;SDS011;11824;51.178;13.546;2023-09-30T01:33:44;3.70;;;2.17;;
4420;SDS011;11824;51.178;13.546;2023-09-30T01:36:13;8.23;;;2.17;;
4420;SDS011;11824;51.178;13.546;2023-09-30T01:38:48;1.53;;;1.20;;
4420;SDS011;11824;51.178;13.546;2023-09-30T01:41:17;10.90;;;2.03;;
4420;SDS011;11824;51.178;13.546;2023-09-30T01:43:48;8.37;;;2.20;;
4420;SDS011;11824;51.178;13.546;2023-09-30T01:46:17;2.00;;;1.30;;
4420;SDS011;11824;51.178;13.546;2023-09-30T01:48:51;2.47;;;1.70;;
4420;SDS011;11824;51.178;13.546;2023-09-30T01:51:22;2.37;;;1.70;;
4420;SDS011;11824;51.178;13.546;2023-09-30T01:53:57;13.30;;;1.77;;
4420;SDS011;11824;51.178;13.546;2023-09-30T01:56:27;4.50;;;2.10;;
4420;SDS011;11824;51.178;13.546;2023-09-30T01:58:59;5.07;;;1.70;;
4420;SDS011;11824;51.178;13.546;2023-09-30T02:01:30;6.53;;;2.40;;
4420;SDS011;11824;51.178;13.546;2023-09-30T02:04:03;3.27;;;1.67;;
4420;SDS011;11824;51.178;13.546;2023-09-30T02:06:35;8.63;;;2.37;;
4420;SDS011;11824;51.178;13.546;2023-09-30T02:09:11;8.80;;;2.47;;
4420;SDS011;11824;51.178;13.546;2023-09-30T02:11:40;2.73;;;1.57;;
4420;SDS011;11824;51.178;13.546;2023-09-30T02:14:09;3.00;;;1.43;;
4420;SDS011;11824;51.178;13.546;2023-09-30T02:16:38;4.60;;;1.93;;
4420;SDS011;11824;51.178;13.546;2023-09-30T02:19:08;9.23;;;2.77;;
4420;SDS011;11824;51.178;13.546;2023-09-30T02:21:37;5.57;;;2.43;;
4420;SDS011;11824;51.178;13.546;2023-09-30T02:24:06;2.40;;;2.03;;
4420;SDS011;11824;51.178;13.546;2023-09-30T02:26:38;9.00;;;2.20;;
4420;SDS011;11824;51.178;13.546;2023-09-30T02:29:06;9.50;;;3.87;;
4420;SDS011;11824;51.178;13.546;2023-09-30T02:31:35;9.40;;;2.20;;
4420;SDS011;11824;51.178;13.546;2023-09-30T02:34:04;5.40;;;2.30;;
4420;SDS011;11824;51.178;13.546;2023-09-30T02:36:33;5.73;;;1.97;;
4420;SDS011;11824;51.178;13.546;2023-09-30T02:39:06;8.03;;;2.07;;
4420;SDS011;11824;51.178;13.546;2023-09-30T02:41:35;6.10;;;2.50;;
4420;SDS011;11824;51.178;13.546;2023-09-30T02:44:06;5.93;;;1.70;;
4420;SDS011;11824;51.178;13.546;2023-09-30T02:46:34;3.73;;;1.97;;
4420;SDS011;11824;51.178;13.546;2023-09-30T02:49:04;8.73;;;2.17;;
4420;SDS011;11824;51.178;13.546;2023-09-30T02:51:33;5.53;;;1.77;;
4420;SDS011;11824;51.178;13.546;2023-09-30T02:54:02;6.00;;;2.30;;
4420;SDS011;11824;51.178;13.546;2023-09-30T02:56:32;4.70;;;2.00;;
4420;SDS011;11824;51.178;13.546;2023-09-30T02:59:03;9.23;;;3.33;;
4420;SDS011;11824;51.178;13.546;2023-09-30T03:01:33;13.73;;;2.57;;
4420;SDS011;11824;51.178;13.546;2023-09-30T03:04:02;8.57;;;3.17;;
4420;SDS011;11824;51.178;13.546;2023-09-30T03:06:33;6.47;;;2.07;;
4420;SDS011;11824;51.178;13.546;2023-09-30T03:09:05;9.20;;;3.20;;
4420;SDS011;11824;51.178;13.546;2023-09-30T03:11:36;12.30;;;2.97;;
4420;SDS011;11824;51.178;13.546;2023-09-30T03:14:06;5.87;;;2.30;;
4420;SDS011;11824;51.178;13.546;2023-09-30T03:16:36;7.13;;;2.60;;
4420;SDS011;11824;51.178;13.546;2023-09-30T03:19:06;5.30;;;2.40;;
4420;SDS011;11824;51.178;13.546;2023-09-30T03:21:37;14.70;;;3.97;;
4420;SDS011;11824;51.178;13.546;2023-09-30T03:24:06;9.00;;;3.30;;
4420;SDS011;11824;51.178;13.546;2023-09-30T03:26:35;9.43;;;2.43;;
4420;SDS011;11824;51.178;13.546;2023-09-30T03:29:09;7.83;;;2.27;;
4420;SDS011;11824;51.178;13.546;2023-09-30T03:31:39;10.57;;;2.10;;
4420;SDS011;11824;51.178;13.546;2023-09-30T03:34:07;12.50;;;2.73;;
4420;SDS011;11824;51.178;13.546;2023-09-30T03:36:38;8.20;;;2.87;;
4420;SDS011;11824;51.178;13.546;2023-09-30T03:39:07;10.03;;;3.53;;
4420;SDS011;11824;51.178;13.546;2023-09-30T03:41:41;9.50;;;2.73;;
4420;SDS011;11824;51.178;13.546;2023-09-30T03:44:12;12.80;;;3.00;;
4420;SDS011;11824;51.178;13.546;2023-09-30T03:46:40;10.00;;;3.10;;
4420;SDS011;11824;51.178;13.546;2023-09-30T03:49:09;6.83;;;2.70;;
4420;SDS011;11824;51.178;13.546;2023-09-30T03:51:38;17.80;;;3.77;;
4420;SDS011;11824;51.178;13.546;2023-09-30T03:54:08;11.57;;;3.03;;
4420;SDS011;11824;51.178;13.546;2023-09-30T03:56:37;15.60;;;4.07;;
4420;SDS011;11824;51.178;13.546;2023-09-30T03:59:07;14.83;;;3.73;;
4420;SDS011;11824;51.178;13.546;2023-09-30T04:01:38;11.47;;;2.90;;
4420;SDS011;11824;51.178;13.546;2023-09-30T04:04:07;10.40;;;2.70;;
4420;SDS011;11824;51.178;13.546;2023-09-30T04:06:36;16.03;;;2.97;;
4420;SDS011;11824;51.178;13.546;2023-09-30T04:09:05;7.60;;;3.37;;
4420;SDS011;11824;51.178;13.546;2023-09-30T04:11:37;15.30;;;4.67;;
4420;SDS011;11824;51.178;13.546;2023-09-30T04:14:08;9.30;;;2.70;;
4420;SDS011;11824;51.178;13.546;2023-09-30T04:16:39;11.90;;;3.27;;
4420;SDS011;11824;51.178;13.546;2023-09-30T04:19:08;13.57;;;3.30;;
4420;SDS011;11824;51.178;13.546;2023-09-30T04:21:37;10.00;;;3.80;;
4420;SDS011;11824;51.178;13.546;2023-09-30T04:24:06;12.37;;;2.87;;
4420;SDS011;11824;51.178;13.546;2023-09-30T04:26:35;11.60;;;5.00;;
4420;SDS011;11824;51.178;13.546;2023-09-30T04:29:04;12.60;;;4.73;;
4420;SDS011;11824;51.178;13.546;2023-09-30T04:31:34;20.30;;;3.40;;
4420;SDS011;11824;51.178;13.546;2023-09-30T04:34:05;29.80;;;12.33;;
4420;SDS011;11824;51.178;13.546;2023-09-30T04:36:34;17.70;;;3.80;;
4420;SDS011;11824;51.178;13.546;2023-09-30T04:39:03;10.23;;;3.80;;
4420;SDS011;11824;51.178;13.546;2023-09-30T04:41:32;9.80;;;3.63;;
4420;SDS011;11824;51.178;13.546;2023-09-30T04:44:01;15.37;;;3.70;;
4420;SDS011;11824;51.178;13.546;2023-09-30T04:46:30;16.27;;;4.00;;
4420;SDS011;11824;51.178;13.546;2023-09-30T04:49:00;17.90;;;4.10;;
4420;SDS011;11824;51.178;13.546;2023-09-30T04:51:30;9.87;;;3.47;;
4420;SDS011;11824;51.178;13.546;2023-09-30T04:53:59;18.30;;;4.07;;
4420;SDS011;11824;51.178;13.546;2023-09-30T04:56:30;13.53;;;4.47;;
4420;SDS011;11824;51.178;13.546;2023-09-30T04:58:58;20.00;;;4.67;;
4420;SDS011;11824;51.178;13.546;2023-09-30T05:01:27;16.80;;;4.20;;
4420;SDS011;11824;51.178;13.546;2023-09-30T05:03:56;14.10;;;4.27;;
4420;SDS011;11824;51.178;13.546;2023-09-30T05:06:26;9.70;;;3.83;;
4420;SDS011;11824;51.178;13.546;2023-09-30T05:08:56;12.03;;;3.10;;
4420;SDS011;11824;51.178;13.546;2023-09-30T05:11:25;15.87;;;3.83;;
4420;SDS011;11824;51.178;13.546;2023-09-30T05:13:54;14.80;;;3.70;;
4420;SDS011;11824;51.178;13.546;2023-09-30T05:16:23;11.53;;;4.40;;
4420;SDS011;11824;51.178;13.546;2023-09-30T05:18:53;9.23;;;2.77;;
4420;SDS011;11824;51.178;13.546;2023-09-30T05:21:22;8.23;;;2.90;;
4420;SDS011;11824;51.178;13.546;2023-09-30T05:23:51;12.03;;;3.40;;
4420;SDS011;11824;51.178;13.546;2023-09-30T05:26:21;10.97;;;4.10;;
4420;SDS011;11824;51.178;13.546;2023-09-30T05:28:50;8.57;;;3.70;;
4420;SDS011;11824;51.178;13.546;2023-09-30T05:31:19;10.90;;;3.87;;
4420;SDS011;11824;51.178;13.546;2023-09-30T05:33:48;17.53;;;5.37;;
4420;SDS011;11824;51.178;13.546;2023-09-30T05:36:17;6.67;;;4.07;;
4420;SDS011;11824;51.178;13.546;2023-09-30T05:38:46;10.23;;;3.90;;
4420;SDS011;11824;51.178;13.546;2023-09-30T05:41:15;11.80;;;4.70;;
4420;SDS011;11824;51.178;13.546;2023-09-30T05:43:48;17.03;;;4.97;;
4420;SDS011;11824;51.178;13.546;2023-09-30T05:46:17;18.63;;;5.00;;
4420;SDS011;11824;51.178;13.546;2023-09-30T05:48:46;13.13;;;4.40;;
4420;SDS011;11824;51.178;13.546;2023-09-30T05:51:15;12.00;;;5.40;;
4420;SDS011;11824;51.178;13.546;2023-09-30T05:53:45;18.77;;;4.27;;
4420;SDS011;11824;51.178;13.546;2023-09-30T05:56:14;11.50;;;4.33;;
4420;SDS011;11824;51.178;13.546;2023-09-30T05:58:44;12.80;;;4.47;;
4420;SDS011;11824;51.178;13.546;2023-09-30T06:01:14;11.20;;;3.83;;
4420;SDS011;11824;51.178;13.546;2023-09-30T06:03:45;14.03;;;4.60;;
4420;SDS011;11824;51.178;13.546;2023-09-30T06:06:15;23.70;;;4.90;;
4420;SDS011;11824;51.178;13.546;2023-09-30T06:08:44;11.97;;;4.27;;
4420;SDS011;11824;51.178;13.546;2023-09-30T06:11:16;21.30;;;4.97;;
4420;SDS011;11824;51.178;13.546;2023-09-30T06:13:45;9.57;;;4.40;;
4420;SDS011;11824;51.178;13.546;2023-09-30T06:16:15;15.57;;;3.77;;
4420;SDS011;11824;51.178;13.546;2023-09-30T06:18:44;19.83;;;6.00;;
4420;SDS011;11824;51.178;13.546;2023-09-30T06:21:13;9.93;;;4.10;;
4420;SDS011;11824;51.178;13.546;2023-09-30T06:23:44;18.63;;;4.27;;
4420;SDS011;11824;51.178;13.546;2023-09-30T06:26:13;13.57;;;4.67;;
4420;SDS011;11824;51.178;13.546;2023-09-30T06:28:43;13.20;;;3.93;;
4420;SDS011;11824;51.178;13.546;2023-09-30T06:31:13;22.43;;;11.93;;
4420;SDS011;11824;51.178;13.546;2023-09-30T06:33:44;20.00;;;8.40;;
4420;SDS011;11824;51.178;13.546;2023-09-30T06:36:13;17.33;;;6.37;;
4420;SDS011;11824;51.178;13.546;2023-09-30T06:38:43;13.37;;;5.90;;
4420;SDS011;11824;51.178;13.546;2023-09-30T06:41:17;14.83;;;4.20;;
4420;SDS011;11824;51.178;13.546;2023-09-30T06:43:46;20.57;;;5.07;;
4420;SDS011;11824;51.178;13.546;2023-09-30T06:46:17;19.33;;;5.27;;
4420;SDS011;11824;51.178;13.546;2023-09-30T06:48:46;19.30;;;12.50;;
4420;SDS011;11824;51.178;13.546;2023-09-30T06:51:14;11.33;;;5.57;;
4420;SDS011;11824;51.178;13.546;2023-09-30T06:53:44;15.33;;;6.20;;
4420;SDS011;11824;51.178;13.546;2023-09-30T06:56:13;12.73;;;5.40;;
4420;SDS011;11824;51.178;13.546;2023-09-30T06:58:42;11.30;;;4.50;;
4420;SDS011;11824;51.178;13.546;2023-09-30T07:01:14;15.90;;;5.47;;
4420;SDS011;11824;51.178;13.546;2023-09-30T07:03:45;11.73;;;4.93;;
4420;SDS011;11824;51.178;13.546;2023-09-30T07:06:21;16.40;;;5.40;;
4420;SDS011;11824;51.178;13.546;2023-09-30T07:08:50;19.63;;;5.17;;
4420;SDS011;11824;51.178;13.546;2023-09-30T07:11:26;16.07;;;6.50;;
4420;SDS011;11824;51.178;13.546;2023-09-30T07:13:55;16.53;;;5.70;;
4420;SDS011;11824;51.178;13.546;2023-09-30T07:16:26;18.90;;;4.87;;
4420;SDS011;11824;51.178;13.546;2023-09-30T07:18:55;19.53;;;8.30;;
4420;SDS011;11824;51.178;13.546;2023-09-30T07:21:24;19.40;;;9.90;;
4420;SDS011;11824;51.178;13.546;2023-09-30T07:23:53;11.57;;;4.77;;
4420;SDS011;11824;51.178;13.546;2023-09-30T07:26:23;13.47;;;5.10;;
4420;SDS011;11824;51.178;13.546;2023-09-30T07:28:52;22.50;;;5.23;;
4420;SDS011;11824;51.178;13.546;2023-09-30T07:31:23;16.13;;;6.47;;
4420;SDS011;11824;51.178;13.546;2023-09-30T07:33:53;20.40;;;5.83;;
4420;SDS011;11824;51.178;13.546;2023-09-30T07:36:22;14.73;;;4.33;;
4420;SDS011;11824;51.178;13.546;2023-09-30T07:38:51;13.20;;;4.30;;
4420;SDS011;11824;51.178;13.546;2023-09-30T07:41:20;14.93;;;5.13;;
4420;SDS011;11824;51.178;13.546;2023-09-30T07:43:49;18.63;;;5.70;;
4420;SDS011;11824;51.178;13.546;2023-09-30T07:46:18;19.43;;;8.07;;
4420;SDS011;11824;51.178;13.546;2023-09-30T07:48:49;19.90;;;6.70;;
4420;SDS011;11824;51.178;13.546;2023-09-30T07:51:19;23.90;;;6.07;;
4420;SDS011;11824;51.178;13.546;2023-09-30T07:53:47;21.97;;;8.97;;
4420;SDS011;11824;51.178;13.546;2023-09-30T07:56:17;29.30;;;15.73;;
4420;SDS011;11824;51.178;13.546;2023-09-30T07:58:46;36.17;;;17.93;;
4420;SDS011;11824;51.178;13.546;2023-09-30T08:01:15;20.53;;;10.17;;
4420;SDS011;11824;51.178;13.546;2023-09-30T08:03:44;24.73;;;7.33;;
4420;SDS011;11824;51.178;13.546;2023-09-30T08:06:14;24.73;;;10.40;;
4420;SDS011;11824;51.178;13.546;2023-09-30T08:08:43;16.80;;;6.90;;
4420;SDS011;11824;51.178;13.546;2023-09-30T08:11:14;19.60;;;9.43;;
4420;SDS011;11824;51.178;13.546;2023-09-30T08:13:43;18.47;;;10.00;;
4420;SDS011;11824;51.178;13.546;2023-09-30T08:16:11;16.87;;;7.20;;
4420;SDS011;11824;51.178;13.546;2023-09-30T08:18:40;21.20;;;6.07;;
4420;SDS011;11824;51.178;13.546;2023-09-30T08:21:09;20.90;;;8.40;;
4420;SDS011;11824;51.178;13.546;2023-09-30T08:23:40;13.20;;;5.30;;
4420;SDS011;11824;51.178;13.546;2023-09-30T08:26:09;20.93;;;5.00;;
4420;SDS011;11824;51.178;13.546;2023-09-30T08:28:37;13.83;;;4.40;;
4420;SDS011;11824;51.178;13.546;2023-09-30T08:31:07;27.83;;;6.00;;
4420;SDS011;11824;51.178;13.546;2023-09-30T08:33:36;30.67;;;5.80;;
4420;SDS011;11824;51.178;13.546;2023-09-30T08:36:06;19.83;;;5.90;;
4420;SDS011;11824;51.178;13.546;2023-09-30T08:38:37;17.83;;;6.10;;
4420;SDS011;11824;51.178;13.546;2023-09-30T08:41:08;19.13;;;6.10;;
4420;SDS011;11824;51.178;13.546;2023-09-30T08:43:37;18.50;;;5.40;;
4420;SDS011;11824;51.178;13.546;2023-09-30T08:46:07;12.93;;;6.87;;
4420;SDS011;11824;51.178;13.546;2023-09-30T08:48:36;23.37;;;10.77;;
4420;SDS011;11824;51.178;13.546;2023-09-30T08:51:05;37.60;;;19.37;;
4420;SDS011;11824;51.178;13.546;2023-09-30T08:53:35;27.00;;;7.97;;
4420;SDS011;11824;51.178;13.546;2023-09-30T08:56:06;20.90;;;5.67;;
4420;SDS011;11824;51.178;13.546;2023-09-30T08:58:36;25.23;;;8.80;;
4420;SDS011;11824;51.178;13.546;2023-09-30T09:01:06;25.67;;;8.97;;
4420;SDS011;11824;51.178;13.546;2023-09-30T09:03:37;21.67;;;10.73;;
4420;SDS011;11824;51.178;13.546;2023-09-30T09:06:07;27.37;;;4.80;;
4420;SDS011;11824;51.178;13.546;2023-09-30T09:08:35;42.30;;;24.83;;
4420;SDS011;11824;51.178;13.546;2023-09-30T09:11:07;38.07;;;21.93;;
4420;SDS011;11824;51.178;13.546;2023-09-30T09:13:45;39.27;;;24.50;;
4420;SDS011;11824;51.178;13.546;2023-09-30T09:16:16;25.20;;;10.10;;
4420;SDS011;11824;51.178;13.546;2023-09-30T09:18:46;24.93;;;11.70;;
4420;SDS011;11824;51.178;13.546;2023-09-30T09:21:16;35.10;;;16.30;;
4420;SDS011;11824;51.178;13.546;2023-09-30T09:23:50;21.83;;;9.57;;
4420;SDS011;11824;51.178;13.546;2023-09-30T09:26:27;19.10;;;5.80;;
4420;SDS011;11824;51.178;13.546;2023-09-30T09:28:59;25.97;;;10.30;;
4420;SDS011;11824;51.178;13.546;2023-09-30T09:31:38;22.27;;;7.03;;
4420;SDS011;11824;51.178;13.546;2023-09-30T09:34:14;21.80;;;7.80;;
4420;SDS011;11824;51.178;13.546;2023-09-30T09:36:57;21.10;;;9.10;;
4420;SDS011;11824;51.178;13.546;2023-09-30T09:39:29;16.60;;;5.57;;
4420;SDS011;11824;51.178;13.546;2023-09-30T09:42:00;20.87;;;8.57;;
4420;SDS011;11824;51.178;13.546;2023-09-30T09:44:29;15.43;;;2.93;;
4420;SDS011;11824;51.178;13.546;2023-09-30T09:47:04;36.10;;;15.40;;
4420;SDS011;11824;51.178;13.546;2023-09-30T09:49:41;20.90;;;7.63;;
4420;SDS011;11824;51.178;13.546;2023-09-30T09:52:11;17.33;;;8.50;;
4420;SDS011;11824;51.178;13.546;2023-09-30T09:54:42;18.30;;;6.40;;
4420;SDS011;11824;51.178;13.546;2023-09-30T09:57:17;16.33;;;6.80;;
4420;SDS011;11824;51.178;13.546;2023-09-30T09:59:58;14.37;;;4.80;;
4420;SDS011;11824;51.178;13.546;2023-09-30T10:02:40;21.73;;;6.20;;
4420;SDS011;11824;51.178;13.546;2023-09-30T10:05:20;9.60;;;4.63;;
4420;SDS011;11824;51.178;13.546;2023-09-30T10:07:54;19.27;;;6.00;;
4420;SDS011;11824;51.178;13.546;2023-09-30T10:10:28;13.03;;;5.17;;
4420;SDS011;11824;51.178;13.546;2023-09-30T10:13:00;22.53;;;8.00;;
4420;SDS011;11824;51.178;13.546;2023-09-30T10:15:37;19.33;;;10.17;;
4420;SDS011;11824;51.178;13.546;2023-09-30T10:18:09;18.20;;;6.80;;
4420;SDS011;11824;51.178;13.546;2023-09-30T10:20:42;22.13;;;9.67;;
4420;SDS011;11824;51.178;13.546;2023-09-30T10:23:22;11.07;;;4.37;;
4420;SDS011;11824;51.178;13.546;2023-09-30T10:25:53;12.23;;;3.90;;
4420;SDS011;11824;51.178;13.546;2023-09-30T10:28:43;11.60;;;3.53;;
4420;SDS011;11824;51.178;13.546;2023-09-30T10:31:15;19.23;;;8.37;;
4420;SDS011;11824;51.178;13.546;2023-09-30T10:36:48;19.93;;;5.30;;
4420;SDS011;11824;51.178;13.546;2023-09-30T10:42:45;14.70;;;6.40;;
4420;SDS011;11824;51.178;13.546;2023-09-30T10:48:37;11.50;;;3.60;;
4420;SDS011;11824;51.178;13.546;2023-09-30T10:51:11;14.37;;;3.50;;
4420;SDS011;11824;51.178;13.546;2023-09-30T10:53:46;14.40;;;3.80;;
4420;SDS011;11824;51.178;13.546;2023-09-30T10:56:18;23.27;;;7.00;;
4420;SDS011;11824;51.178;13.546;2023-09-30T10:58:48;18.77;;;8.47;;
4420;SDS011;11824;51.178;13.546;2023-09-30T11:01:31;12.60;;;3.57;;
4420;SDS011;11824;51.178;13.546;2023-09-30T11:04:09;11.27;;;3.77;;
4420;SDS011;11824;51.178;13.546;2023-09-30T11:06:47;14.07;;;3.80;;
4420;SDS011;11824;51.178;13.546;2023-09-30T11:09:24;14.50;;;3.40;;
4420;SDS011;11824;51.178;13.546;2023-09-30T11:12:13;7.40;;;3.30;;
4420;SDS011;11824;51.178;13.546;2023-09-30T11:14:58;8.07;;;3.27;;
4420;SDS011;11824;51.178;13.546;2023-09-30T11:17:42;19.57;;;5.00;;
4420;SDS011;11824;51.178;13.546;2023-09-30T11:20:39;9.57;;;6.40;;
4420;SDS011;11824;51.178;13.546;2023-09-30T11:23:27;19.53;;;6.03;;
4420;SDS011;11824;51.178;13.546;2023-09-30T11:26:06;12.67;;;3.20;;
4420;SDS011;11824;51.178;13.546;2023-09-30T11:28:47;14.40;;;3.30;;
4420;SDS011;11824;51.178;13.546;2023-09-30T11:31:32;17.97;;;3.20;;
4420;SDS011;11824;51.178;13.546;2023-09-30T11:37:04;16.23;;;2.43;;
4420;SDS011;11824;51.178;13.546;2023-09-30T11:39:52;9.17;;;2.47;;
4420;SDS011;11824;51.178;13.546;2023-09-30T11:42:40;9.03;;;3.23;;
4420;SDS011;11824;51.178;13.546;2023-09-30T11:45:18;7.73;;;2.17;;
4420;SDS011;11824;51.178;13.546;2023-09-30T11:47:49;8.40;;;2.27;;
4420;SDS011;11824;51.178;13.546;2023-09-30T11:50:20;12.87;;;3.37;;
4420;SDS011;11824;51.178;13.546;2023-09-30T11:52:53;15.93;;;3.07;;
4420;SDS011;11824;51.178;13.546;2023-09-30T11:55:32;11.77;;;3.33;;
4420;SDS011;11824;51.178;13.546;2023-09-30T11:58:26;13.40;;;3.70;;
4420;SDS011;11824;51.178;13.546;2023-09-30T12:01:12;11.23;;;2.73;;
4420;SDS011;11824;51.178;13.546;2023-09-30T12:03:47;12.60;;;3.63;;
4420;SDS011;11824;51.178;13.546;2023-09-30T12:06:30;10.07;;;2.90;;
4420;SDS011;11824;51.178;13.546;2023-09-30T12:09:04;6.20;;;2.40;;
4420;SDS011;11824;51.178;13.546;2023-09-30T12:11:43;12.70;;;3.77;;
4420;SDS011;11824;51.178;13.546;2023-09-30T12:14:15;12.77;;;3.53;;
4420;SDS011;11824;51.178;13.546;2023-09-30T12:17:02;8.87;;;2.73;;
4420;SDS011;11824;51.178;13.546;2023-09-30T12:19:41;8.33;;;2.43;;
4420;SDS011;11824;51.178;13.546;2023-09-30T12:22:16;14.70;;;2.83;;
4420;SDS011;11824;51.178;13.546;2023-09-30T12:24:47;15.73;;;4.10;;
4420;SDS011;11824;51.178;13.546;2023-09-30T12:27:31;21.33;;;8.73;;
4420;SDS011;11824;51.178;13.546;2023-09-30T12:30:19;29.70;;;9.10;;
4420;SDS011;11824;51.178;13.546;2023-09-30T12:35:51;11.90;;;4.60;;
4420;SDS011;11824;51.178;13.546;2023-09-30T12:38:36;17.37;;;5.30;;
4420;SDS011;11824;51.178;13.546;2023-09-30T12:41:10;5.33;;;2.23;;
4420;SDS011;11824;51.178;13.546;2023-09-30T12:43:42;12.67;;;3.67;;
4420;SDS011;11824;51.178;13.546;2023-09-30T12:46:27;10.73;;;3.30;;
4420;SDS011;11824;51.178;13.546;2023-09-30T12:49:03;9.77;;;3.77;;
4420;SDS011;11824;51.178;13.546;2023-09-30T12:51:37;8.60;;;3.40;;
4420;SDS011;11824;51.178;13.546;2023-09-30T12:54:16;11.63;;;2.70;;
4420;SDS011;11824;51.178;13.546;2023-09-30T12:56:49;8.83;;;2.80;;
4420;SDS011;11824;51.178;13.546;2023-09-30T12:59:19;7.93;;;2.43;;
4420;SDS011;11824;51.178;13.546;2023-09-30T13:02:07;9.50;;;2.13;;
4420;SDS011;11824;51.178;13.546;2023-09-30T13:04:50;9.77;;;2.70;;
4420;SDS011;11824;51.178;13.546;2023-09-30T13:07:36;7.83;;;2.67;;
4420;SDS011;11824;51.178;13.546;2023-09-30T13:10:35;6.47;;;2.70;;
4420;SDS011;11824;51.178;13.546;2023-09-30T13:13:46;7.60;;;2.30;;
4420;SDS011;11824;51.178;13.546;2023-09-30T13:16:46;9.30;;;2.90;;
4420;SDS011;11824;51.178;13.546;2023-09-30T13:19:41;10.27;;;2.47;;
4420;SDS011;11824;51.178;13.546;2023-09-30T13:22:34;12.20;;;2.13;;
4420;SDS011;11824;51.178;13.546;2023-09-30T13:25:40;6.27;;;2.77;;
4420;SDS011;11824;51.178;13.546;2023-09-30T13:31:27;9.40;;;6.20;;
4420;SDS011;11824;51.178;13.546;2023-09-30T13:33:59;28.33;;;19.20;;
4420;SDS011;11824;51.178;13.546;2023-09-30T13:36:33;16.60;;;11.40;;
4420;SDS011;11824;51.178;13.546;2023-09-30T13:39:08;8.17;;;2.07;;
4420;SDS011;11824;51.178;13.546;2023-09-30T13:41:48;11.67;;;5.77;;
4420;SDS011;11824;51.178;13.546;2023-09-30T13:44:28;22.07;;;9.93;;
4420;SDS011;11824;51.178;13.546;2023-09-30T13:47:05;7.40;;;2.60;;
4420;SDS011;11824;51.178;13.546;2023-09-30T13:49:52;11.17;;;4.83;;
4420;SDS011;11824;51.178;13.546;2023-09-30T13:52:21;10.13;;;4.03;;
4420;SDS011;11824;51.178;13.546;2023-09-30T13:54:54;5.67;;;3.10;;
4420;SDS011;11824;51.178;13.546;2023-09-30T13:57:31;8.60;;;3.13;;
4420;SDS011;11824;51.178;13.546;2023-09-30T14:00:02;9.33;;;2.90;;
4420;SDS011;11824;51.178;13.546;2023-09-30T14:02:43;7.23;;;3.13;;
4420;SDS011;11824;51.178;13.546;2023-09-30T14:05:12;10.80;;;2.50;;
4420;SDS011;11824;51.178;13.546;2023-09-30T14:07:45;10.07;;;3.30;;
4420;SDS011;11824;51.178;13.546;2023-09-30T14:10:18;7.27;;;1.63;;
4420;SDS011;11824;51.178;13.546;2023-09-30T14:12:58;7.27;;;2.47;;
4420;SDS011;11824;51.178;13.546;2023-09-30T14:15:37;16.83;;;2.43;;
4420;SDS011;11824;51.178;13.546;2023-09-30T14:18:24;5.53;;;2.83;;
4420;SDS011;11824;51.178;13.546;2023-09-30T14:21:02;10.90;;;3.80;;
4420;SDS011;11824;51.178;13.546;2023-09-30T14:23:39;10.53;;;3.70;;
4420;SDS011;11824;51.178;13.546;2023-09-30T14:26:09;13.27;;;5.30;;
4420;SDS011;11824;51.178;13.546;2023-09-30T14:28:41;6.57;;;2.17;;
4420;SDS011;11824;51.178;13.546;2023-09-30T14:31:12;6.73;;;2.73;;
4420;SDS011;11824;51.178;13.546;2023-09-30T14:33:43;7.33;;;2.00;;
4420;SDS011;11824;51.178;13.546;2023-09-30T14:36:30;8.17;;;2.20;;
4420;SDS011;11824;51.178;13.546;2023-09-30T14:39:13;6.07;;;1.80;;
4420;SDS011;11824;51.178;13.546;2023-09-30T14:41:47;6.63;;;2.20;;
4420;SDS011;11824;51.178;13.546;2023-09-30T14:44:28;9.00;;;2.50;;
4420;SDS011;11824;51.178;13.546;2023-09-30T14:47:10;15.87;;;2.60;;
4420;SDS011;11824;51.178;13.546;2023-09-30T14:49:42;9.70;;;2.90;;
4420;SDS011;11824;51.178;13.546;2023-09-30T14:52:32;3.40;;;1.70;;
4420;SDS011;11824;51.178;13.546;2023-09-30T14:55:26;14.90;;;3.00;;
4420;SDS011;11824;51.178;13.546;2023-09-30T14:58:00;7.00;;;1.50;;
4420;SDS011;11824;51.178;13.546;2023-09-30T15:03:20;6.73;;;1.50;;
4420;SDS011;11824;51.178;13.546;2023-09-30T15:05:59;7.20;;;2.37;;
4420;SDS011;11824;51.178;13.546;2023-09-30T15:08:40;6.63;;;1.70;;
4420;SDS011;11824;51.178;13.546;2023-09-30T15:11:12;6.27;;;2.30;;
4420;SDS011;11824;51.178;13.546;2023-09-30T15:13:55;9.10;;;1.70;;
4420;SDS011;11824;51.178;13.546;2023-09-30T15:16:27;8.53;;;1.90;;
4420;SDS011;11824;51.178;13.546;2023-09-30T15:19:00;4.43;;;1.80;;
4420;SDS011;11824;51.178;13.546;2023-09-30T15:21:33;3.83;;;1.67;;
4420;SDS011;11824;51.178;13.546;2023-09-30T15:24:04;10.43;;;2.67;;
4420;SDS011;11824;51.178;13.546;2023-09-30T15:26:36;6.60;;;2.40;;
4420;SDS011;11824;51.178;13.546;2023-09-30T15:29:05;10.60;;;2.20;;
4420;SDS011;11824;51.178;13.546;2023-09-30T15:31:35;7.10;;;3.03;;
4420;SDS011;11824;51.178;13.546;2023-09-30T15:34:06;8.70;;;2.60;;